createdAt,value
2018-09-10T16:02:31.148Z,51.65
2018-09-10T16:07:33.402Z,53.07
2018-09-10T16:12:35.610Z,55.28
2018-09-10T16:17:37.795Z,56.33
2018-09-10T16:22:39.965Z,56.39
2018-09-10T16:27:42.254Z,57.20
2018-09-10T16:32:44.512Z,58.04
2018-09-10T16:37:46.727Z,57.95
2018-09-10T16:42:48.907Z,58.68
2018-09-10T16:47:51.070Z,59.25
2018-09-10T16:52:53.255Z,59.37
2018-09-10T16:57:56.218Z,59.46
2018-09-10T17:02:58.398Z,59.25
2018-09-10T17:08:00.657Z,59.87
2018-09-10T17:13:02.852Z,60.29
2018-09-10T17:18:05.107Z,60.75
2018-09-10T17:23:07.294Z,60.82
2018-09-10T17:28:09.505Z,61.04
2018-09-10T17:33:11.760Z,61.20
2018-09-10T17:38:13.951Z,61.65
2018-09-10T17:43:16.203Z,61.63
2018-09-10T17:48:18.383Z,61.76
2018-09-10T17:53:20.644Z,62.75
2018-09-10T17:58:22.774Z,63.09
2018-09-10T18:03:24.984Z,62.96
2018-09-10T18:08:27.944Z,62.98
2018-09-10T18:13:30.171Z,63.48
2018-09-10T18:18:32.407Z,63.52
2018-09-10T18:23:34.610Z,63.20
2018-09-10T18:28:36.811Z,64.02
2018-09-10T18:33:39.096Z,64.51
2018-09-10T18:38:41.354Z,64.53
2018-09-10T18:43:43.598Z,64.56
2018-09-10T18:48:46.494Z,64.68
2018-09-10T18:53:48.818Z,65.12
2018-09-10T18:58:51.104Z,65.88
2018-09-10T19:03:53.413Z,65.56
2018-09-10T19:08:55.799Z,65.31
2018-09-10T19:13:58.097Z,65.87
2018-09-10T19:19:00.468Z,65.88
2018-09-10T19:24:02.860Z,66.27
2018-09-10T19:29:05.164Z,66.35
2018-09-10T19:34:07.895Z,67.08
2018-09-10T19:39:11.176Z,67.23
2018-09-10T19:44:13.616Z,67.43
2018-09-10T19:49:15.840Z,67.57
2018-09-10T19:54:18.815Z,67.57
2018-09-10T19:59:21.350Z,68.73
2018-09-10T20:04:23.597Z,68.36
2018-09-10T20:09:25.896Z,68.67
2018-09-10T20:14:28.049Z,68.02
2018-09-10T20:19:30.236Z,68.60
2018-09-10T20:24:32.436Z,68.52
2018-09-10T20:29:34.623Z,69.00
2018-09-10T20:34:36.780Z,69.40
2018-09-10T20:39:39.123Z,69.51
2018-09-10T20:44:41.273Z,69.50
2018-09-10T20:49:43.483Z,69.34
2018-09-10T20:54:45.690Z,69.47
2018-09-10T20:59:48.007Z,69.64
2018-09-10T21:04:50.147Z,69.93
2018-09-10T21:09:52.333Z,68.92
2018-09-10T21:14:54.512Z,69.26
2018-09-10T21:19:57.072Z,69.20
2018-09-10T21:24:59.252Z,68.93
2018-09-10T21:30:01.451Z,68.58
2018-09-10T21:35:03.802Z,68.58
2018-09-10T21:40:05.982Z,68.65
2018-09-10T21:45:08.268Z,68.29
2018-09-10T21:50:10.445Z,67.48
2018-09-10T21:55:12.635Z,67.80
2018-09-10T22:00:14.855Z,67.82
2018-09-10T22:05:17.014Z,67.88
2018-09-10T22:10:19.215Z,67.50
2018-09-10T22:15:21.364Z,67.34
2018-09-10T22:20:23.580Z,66.70
2018-09-10T22:25:25.733Z,66.80
2018-09-10T22:30:27.879Z,66.73
2018-09-10T22:35:30.003Z,67.01
2018-09-10T22:40:32.190Z,67.13
2018-09-10T22:45:34.359Z,66.81
2018-09-10T22:50:36.570Z,66.24
2018-09-10T22:55:38.709Z,66.86
2018-09-10T23:00:40.838Z,66.33
2018-09-10T23:05:42.993Z,66.81
2018-09-10T23:10:45.198Z,66.81
2018-09-10T23:15:47.373Z,66.49
2018-09-10T23:20:49.588Z,66.40
2018-09-10T23:25:51.780Z,66.57
2018-09-10T23:30:53.950Z,66.57
2018-09-10T23:35:56.101Z,67.18
2018-09-10T23:40:58.275Z,67.28
2018-09-10T23:46:00.394Z,67.29
2018-09-10T23:51:02.589Z,67.11
2018-09-10T23:56:04.740Z,67.05
